Time;durP1;ratioP1;P1;durP2;ratioP2;P2;SDS_P1;SDS_P2;PMS_P1;PMS_P2;Temp;Humidity;BMP_temperature;BMP_pressure;BME280_temperature;BME280_humidity;BME280_pressure;Samples;Min_cycle;Max_cycle;Signal;HPM_P1;HPM_P2
2022/08/05 00:01:16;;;;;;;8.75;5.10;;;;;;;18.27;99.74;101387.94;5072199;28;20028;-71
2022/08/05 00:03:41;;;;;;;8.13;4.75;;;;;;;18.18;99.33;101376.63;5071431;28;20031;-71
2022/08/05 00:06:07;;;;;;;14.15;5.35;;;;;;;18.13;99.32;101376.53;5070796;28;20024;-72
2022/08/05 00:08:33;;;;;;;11.15;5.95;;;;;;;18.14;99.86;101387.09;5072131;28;20029;-72
2022/08/05 00:11:00;;;;;;;10.52;5.85;;;;;;;18.10;99.81;101388.63;5072117;28;20486;-71
2022/08/05 00:13:26;;;;;;;10.50;6.28;;;;;;;18.06;100.00;101383.94;5072121;28;20032;-71
2022/08/05 00:15:51;;;;;;;9.15;5.38;;;;;;;18.11;100.00;101390.28;5072009;28;20024;-72
2022/08/05 00:18:16;;;;;;;10.93;5.35;;;;;;;18.19;100.00;101391.81;5070504;28;20028;-71
2022/08/05 00:20:42;;;;;;;11.07;6.03;;;;;;;18.21;100.00;101383.44;5071620;28;20089;-71
2022/08/05 00:23:07;;;;;;;11.57;6.15;;;;;;;18.25;100.00;101379.25;5071811;28;20024;-71
2022/08/05 00:25:33;;;;;;;10.70;6.10;;;;;;;18.28;100.00;101374.19;5071729;28;20048;-72
2022/08/05 00:27:58;;;;;;;11.80;5.55;;;;;;;18.31;100.00;101378.28;5071573;28;20032;-71
2022/08/05 00:30:24;;;;;;;11.10;5.38;;;;;;;18.30;100.00;101385.56;5071686;28;20536;-71
2022/08/05 00:32:49;;;;;;;10.60;5.90;;;;;;;18.27;100.00;101380.66;5071449;28;20068;-71
2022/08/05 00:35:15;;;;;;;10.27;6.28;;;;;;;18.35;100.00;101392.97;5071496;28;20545;-71
2022/08/05 00:37:40;;;;;;;11.15;6.05;;;;;;;18.35;100.00;101393.78;5071498;28;20036;-71
2022/08/05 00:40:07;;;;;;;12.82;5.68;;;;;;;18.34;100.00;101388.66;5071317;28;20040;-71
2022/08/05 00:42:35;;;;;;;8.40;5.50;;;;;;;18.29;100.00;101383.13;5071488;28;20121;-72
2022/08/05 00:45:02;;;;;;;11.35;6.03;;;;;;;18.27;100.00;101387.94;5071441;28;20028;-72
2022/08/05 00:47:28;;;;;;;12.07;5.82;;;;;;;18.21;100.00;101378.91;5071491;28;20364;-71
2022/08/05 00:49:54;;;;;;;8.68;5.65;;;;;;;18.27;100.00;101382.53;5071357;28;20090;-71
2022/08/05 00:52:19;;;;;;;9.32;5.65;;;;;;;18.19;100.00;101381.00;5071429;28;20028;-71
2022/08/05 00:54:44;;;;;;;13.82;5.57;;;;;;;18.21;100.00;101380.75;5071189;28;20032;-71
2022/08/05 00:57:10;;;;;;;13.13;5.50;;;;;;;18.22;100.00;101383.22;5071161;28;20068;-71
2022/08/05 00:59:35;;;;;;;11.25;5.47;;;;;;;18.22;100.00;101388.63;5071285;28;20439;-71
2022/08/05 01:02:00;;;;;;;20.35;6.40;;;;;;;18.20;100.00;101377.22;5071160;28;20500;-71
2022/08/05 01:04:26;;;;;;;11.15;6.07;;;;;;;18.22;100.00;101377.84;5070508;28;20036;-72
2022/08/05 01:06:51;;;;;;;10.90;5.72;;;;;;;18.20;100.00;101379.13;5071000;28;20024;-71
2022/08/05 01:09:16;;;;;;;12.80;5.85;;;;;;;18.27;100.00;101385.22;5071057;28;20050;-71
2022/08/05 01:11:45;;;;;;;11.43;5.03;;;;;;;18.29;100.00;101375.84;5070887;28;20044;-72
2022/08/05 01:14:47;;;;;;;13.52;5.70;;;;;;;18.35;100.00;101384.88;5070934;28;20040;-72
2022/08/05 01:17:22;;;;;;;7.82;4.82;;;;;;;18.42;100.00;101400.94;5070818;28;20065;-72
2022/08/05 01:20:00;;;;;;;9.55;4.78;;;;;;;18.45;100.00;101403.19;5070896;28;20024;-72
2022/08/05 01:22:58;;;;;;;11.27;5.53;;;;;;;18.46;100.00;101402.13;5070523;28;20036;-71
2022/08/05 01:25:58;;;;;;;8.55;5.20;;;;;;;18.45;100.00;101412.13;5066257;28;20128;-71
2022/08/05 01:28:26;;;;;;;9.85;5.18;;;;;;;18.46;99.85;101418.34;5068809;28;20047;-72
2022/08/05 01:31:30;;;;;;;8.85;5.05;;;;;;;18.47;99.23;101425.38;5070170;28;20028;-72
2022/08/05 01:34:02;;;;;;;9.65;4.88;;;;;;;18.44;98.95;101425.84;5067434;28;20134;-71
2022/08/05 01:36:33;;;;;;;11.63;4.28;;;;;;;18.39;99.01;101432.78;5070492;28;20044;-72
2022/08/05 01:38:59;;;;;;;12.05;5.05;;;;;;;18.38;99.30;101441.94;5070539;28;20043;-71
2022/08/05 01:41:28;;;;;;;8.10;4.45;;;;;;;18.33;99.31;101447.22;5070204;28;20037;-71
2022/08/05 01:43:55;;;;;;;8.30;5.22;;;;;;;18.35;99.10;101455.09;5070341;28;20031;-71
2022/08/05 01:46:22;;;;;;;10.73;4.88;;;;;;;18.35;99.34;101453.22;5070135;28;20032;-71
2022/08/05 01:48:48;;;;;;;6.93;4.72;;;;;;;18.34;98.66;101454.28;5070147;28;20032;-71
2022/08/05 01:51:16;;;;;;;9.88;5.18;;;;;;;18.35;98.62;101474.00;5070229;28;20023;-71
2022/08/05 01:53:45;;;;;;;8.45;4.32;;;;;;;18.38;99.81;101473.53;5068823;28;20021;-71
2022/08/05 01:56:14;;;;;;;7.78;5.07;;;;;;;18.33;99.50;101466.13;5070073;28;20029;-71
2022/08/05 01:58:42;;;;;;;11.65;5.15;;;;;;;18.27;99.24;101444.63;5069884;28;20036;-71
2022/08/05 02:01:09;;;;;;;10.30;5.72;;;;;;;18.17;99.52;101437.91;5069854;28;20032;-71
2022/08/05 02:03:43;;;;;;;6.50;3.83;;;;;;;18.11;99.29;101432.66;5069924;28;20028;-71
2022/08/05 02:06:09;;;;;;;7.28;3.97;;;;;;;18.08;100.00;101442.03;5070010;28;20025;-71
2022/08/05 02:08:35;;;;;;;9.68;4.78;;;;;;;18.02;100.00;101439.44;5069833;28;20035;-71
2022/08/05 02:11:10;;;;;;;12.23;5.07;;;;;;;18.01;99.75;101432.41;5069883;28;20036;-71
2022/08/05 02:13:38;;;;;;;9.13;5.22;;;;;;;17.98;100.00;101425.59;5069759;28;20101;-71
2022/08/05 02:16:15;;;;;;;9.07;5.13;;;;;;;17.95;100.00;101416.06;5069662;28;20040;-71
2022/08/05 02:18:49;;;;;;;9.85;6.03;;;;;;;17.91;100.00;101393.28;5069675;28;20384;-72
2022/08/05 02:21:18;;;;;;;8.90;4.60;;;;;;;17.88;100.00;101396.44;5069541;28;20073;-72
2022/08/05 02:23:47;;;;;;;10.88;5.28;;;;;;;17.82;100.00;101402.78;5069421;28;20031;-72
2022/08/05 02:26:18;;;;;;;13.38;6.20;;;;;;;17.81;100.00;101409.22;5069239;28;20133;-71
2022/08/05 02:28:45;;;;;;;8.07;4.25;;;;;;;17.77;100.00;101426.91;5069095;28;20031;-72
2022/08/05 02:31:16;;;;;;;7.70;4.20;;;;;;;17.79;100.00;101430.25;5069453;28;20119;-71
2022/08/05 02:33:48;;;;;;;9.13;4.30;;;;;;;17.82;100.00;101429.78;5069355;28;20053;-67
2022/08/05 02:36:18;;;;;;;8.55;4.68;;;;;;;17.76;100.00;101390.16;5069393;28;20047;-67
2022/08/05 02:38:48;;;;;;;13.45;4.63;;;;;;;17.80;100.00;101422.97;5069321;28;20502;-68
2022/08/05 02:41:16;;;;;;;10.55;6.03;;;;;;;17.81;100.00;101438.09;5069400;28;20102;-67
2022/08/05 02:43:43;;;;;;;8.95;4.57;;;;;;;17.80;100.00;101426.47;5068949;28;20024;-67
2022/08/05 02:46:15;;;;;;;8.23;4.18;;;;;;;17.77;100.00;101435.00;5069354;28;20111;-67
2022/08/05 02:48:40;;;;;;;14.60;4.28;;;;;;;17.78;100.00;101449.31;5069466;28;20124;-67
2022/08/05 02:51:07;;;;;;;11.13;4.78;;;;;;;17.75;100.00;101453.28;5069267;28;20090;-67
2022/08/05 02:53:32;;;;;;;9.73;5.15;;;;;;;17.73;100.00;101447.28;5069338;28;20094;-67
2022/08/05 02:55:59;;;;;;;10.65;5.03;;;;;;;17.74;100.00;101447.06;5067745;28;20036;-68
2022/08/05 02:58:25;;;;;;;10.25;5.00;;;;;;;17.70;100.00;101445.88;5069200;28;20033;-67
2022/08/05 03:00:54;;;;;;;8.20;4.45;;;;;;;17.69;100.00;101432.63;5068042;28;20173;-68
2022/08/05 03:03:20;;;;;;;7.47;3.90;;;;;;;17.69;100.00;101425.34;5069167;28;20104;-67
2022/08/05 03:05:47;;;;;;;10.48;4.38;;;;;;;17.68;100.00;101417.47;5069062;28;20024;-68
2022/08/05 03:08:14;;;;;;;7.85;4.15;;;;;;;17.65;100.00;101407.16;5069148;28;20029;-67
2022/08/05 03:10:43;;;;;;;11.85;4.75;;;;;;;17.64;100.00;101405.53;5069102;28;20033;-67
2022/08/05 03:13:15;;;;;;;7.68;4.43;;;;;;;17.57;100.00;101384.03;5068958;28;20032;-67
2022/08/05 03:15:42;;;;;;;;;;;;;;;17.59;100.00;101391.91;5069235;28;20887;-67
2022/08/05 03:18:07;;;;;;;11.23;4.90;;;;;;;17.56;100.00;101387.78;5069043;28;19908;-67
2022/08/05 03:20:32;;;;;;;11.68;5.60;;;;;;;17.55;100.00;101396.09;5068957;28;20028;-67
2022/08/05 03:22:58;;;;;;;11.95;5.47;;;;;;;17.52;100.00;101397.38;5068974;28;20161;-68
2022/08/05 03:25:24;;;;;;;8.73;5.20;;;;;;;17.54;100.00;101406.06;5069034;28;20518;-67
2022/08/05 03:27:49;;;;;;;11.55;5.72;;;;;;;17.56;100.00;101417.47;5071861;28;20040;-68
2022/08/05 03:30:15;;;;;;;9.32;4.78;;;;;;;17.57;100.00;101423.66;5072469;28;20044;-68
2022/08/05 03:32:40;;;;;;;11.50;4.90;;;;;;;17.57;100.00;101423.66;5072611;28;20060;-68
2022/08/05 03:35:06;;;;;;;7.13;3.97;;;;;;;17.55;100.00;101414.97;5072763;28;20439;-67
2022/08/05 03:37:32;;;;;;;8.95;4.38;;;;;;;17.56;100.00;101419.34;5072773;28;20368;-67
2022/08/05 03:39:58;;;;;;;10.13;5.03;;;;;;;17.56;100.00;101422.84;5072774;28;20035;-68
2022/08/05 03:42:24;;;;;;;12.38;5.40;;;;;;;17.60;100.00;101417.81;5072623;28;20124;-68
2022/08/05 03:44:49;;;;;;;9.93;5.35;;;;;;;17.67;100.00;101432.84;5072335;28;20494;-67
2022/08/05 03:47:15;;;;;;;9.95;5.38;;;;;;;17.74;100.00;101438.16;5072241;28;20544;-68
2022/08/05 03:49:40;;;;;;;14.02;6.28;;;;;;;17.74;100.00;101436.28;5072481;28;20028;-68
2022/08/05 03:52:10;;;;;;;7.32;4.32;;;;;;;17.79;100.00;101445.53;5072485;28;20044;-67
2022/08/05 03:54:44;;;;;;;12.18;4.95;;;;;;;17.83;100.00;101452.16;5072554;28;20051;-67
2022/08/05 03:57:12;;;;;;;8.13;4.43;;;;;;;17.84;100.00;101443.84;5072226;28;20384;-67
2022/08/05 03:59:43;;;;;;;11.55;4.85;;;;;;;17.85;100.00;101434.69;5072086;28;20043;-67
2022/08/05 04:02:10;;;;;;;9.05;5.38;;;;;;;17.84;100.00;101432.22;5072312;28;20039;-67
2022/08/05 04:04:38;;;;;;;7.95;4.40;;;;;;;17.72;100.00;101422.19;5072228;28;20036;-67
2022/08/05 04:07:04;;;;;;;15.32;5.50;;;;;;;17.71;100.00;101417.88;5072205;28;20025;-67
2022/08/05 04:09:31;;;;;;;10.80;5.63;;;;;;;17.64;100.00;101406.34;5072084;28;20033;-67
2022/08/05 04:11:56;;;;;;;9.43;4.97;;;;;;;17.63;100.00;101403.84;5072049;28;20044;-67
2022/08/05 04:14:23;;;;;;;10.88;5.00;;;;;;;17.59;100.00;101402.69;5071914;28;20028;-67
2022/08/05 04:16:49;;;;;;;10.18;4.82;;;;;;;17.56;100.00;101411.25;5071996;28;20029;-67
2022/08/05 04:19:14;;;;;;;9.88;5.55;;;;;;;17.59;100.00;101425.09;5072060;28;20036;-67
2022/08/05 04:21:40;;;;;;;10.05;5.75;;;;;;;17.64;100.00;101432.50;5071937;28;20411;-67
2022/08/05 04:24:06;;;;;;;11.43;6.00;;;;;;;17.67;100.00;101429.34;5071868;28;20113;-67
2022/08/05 04:26:32;;;;;;;11.35;5.47;;;;;;;17.72;100.00;101435.69;5053609;28;20493;-67
2022/08/05 04:28:57;;;;;;;13.88;6.10;;;;;;;17.75;100.00;101427.13;5069847;28;20044;-67
2022/08/05 04:31:23;;;;;;;12.02;5.35;;;;;;;17.74;100.00;101433.59;5071745;28;20213;-68
2022/08/05 04:33:48;;;;;;;14.20;5.57;;;;;;;17.69;100.00;101430.75;5051748;28;20940;-67
2022/08/05 04:36:14;;;;;;;11.57;6.00;;;;;;;17.72;100.00;101435.69;5051418;28;20079;-67
2022/08/05 04:38:43;;;;;;;11.77;6.63;;;;;;;17.70;100.00;101448.56;5050342;28;20033;-68
2022/08/05 04:41:08;;;;;;;11.05;5.57;;;;;;;17.61;100.00;101431.06;5051545;28;20036;-67
2022/08/05 04:43:34;;;;;;;10.20;5.85;;;;;;;17.60;100.00;101442.91;5051429;28;20388;-67
2022/08/05 04:45:59;;;;;;;14.02;6.63;;;;;;;17.57;100.00;101447.94;5051327;28;20112;-67
2022/08/05 04:48:25;;;;;;;11.15;5.80;;;;;;;17.55;100.00;101453.56;5050991;28;20031;-68
2022/08/05 04:50:50;;;;;;;10.07;5.22;;;;;;;17.53;100.00;101450.28;5051295;28;20031;-68
2022/08/05 04:53:17;;;;;;;11.68;6.22;;;;;;;17.50;100.00;101448.03;5051324;28;20103;-68
2022/08/05 04:55:43;;;;;;;9.98;5.15;;;;;;;17.47;100.00;101452.00;5051149;28;20969;-67
2022/08/05 04:58:14;;;;;;;13.40;7.13;;;;;;;17.43;100.00;101439.22;5051372;28;20114;-68
2022/08/05 05:00:40;;;;;;;12.57;5.30;;;;;;;17.47;100.00;101448.47;5051098;28;20017;-67
2022/08/05 05:03:07;;;;;;;10.73;5.95;;;;;;;17.43;100.00;101442.72;5050999;28;20040;-68
2022/08/05 05:05:33;;;;;;;14.05;6.40;;;;;;;17.45;100.00;101456.81;5049800;28;20521;-67
2022/08/05 05:08:09;;;;;;;10.75;5.88;;;;;;;17.44;100.00;101454.34;5051003;28;20029;-67
2022/08/05 05:10:45;;;;;;;14.60;6.32;;;;;;;17.44;100.00;101448.94;5050933;28;20064;-67
2022/08/05 05:13:13;;;;;;;11.75;5.38;;;;;;;17.43;100.00;101445.44;5050963;28;20124;-67
2022/08/05 05:15:39;;;;;;;9.45;5.97;;;;;;;17.44;100.00;101448.94;5050895;28;20131;-68
2022/08/05 05:18:05;;;;;;;13.68;5.90;;;;;;;17.48;100.00;101450.97;5050864;28;20090;-68
2022/08/05 05:20:31;;;;;;;10.43;5.65;;;;;;;17.50;100.00;101443.47;5050806;28;20033;-67
2022/08/05 05:22:58;;;;;;;7.95;5.22;;;;;;;17.51;100.00;101434.31;5050848;28;20067;-68
2022/08/05 05:25:23;;;;;;;12.88;6.10;;;;;;;17.54;100.00;101441.13;5050632;28;20043;-68
2022/08/05 05:27:51;;;;;;;13.88;5.82;;;;;;;17.60;100.00;101447.47;5049918;28;20032;-68
2022/08/05 05:30:17;;;;;;;9.48;5.50;;;;;;;17.64;100.00;101460.28;5050370;28;20029;-68
2022/08/05 05:32:42;;;;;;;12.75;5.93;;;;;;;17.66;100.00;101463.59;5061244;28;20049;-68
2022/08/05 05:35:08;;;;;;;13.57;5.53;;;;;;;17.66;100.00;101465.47;5070366;28;20865;-67
2022/08/05 05:37:33;;;;;;;11.77;6.15;;;;;;;17.71;100.00;101460.19;5070288;28;20032;-68
2022/08/05 05:39:58;;;;;;;12.38;5.90;;;;;;;17.70;100.00;101464.75;5070289;28;20543;-68
2022/08/05 05:42:24;;;;;;;11.35;5.13;;;;;;;17.68;100.00;101466.03;5070284;28;20554;-67
2022/08/05 05:44:49;;;;;;;11.00;5.43;;;;;;;17.64;100.00;101465.69;5070287;28;20055;-67
2022/08/05 05:47:14;;;;;;;12.80;6.38;;;;;;;17.64;100.00;101473.78;5068772;28;20498;-67
2022/08/05 05:49:40;;;;;;;10.07;5.10;;;;;;;17.62;100.00;101464.25;5069438;28;20028;-67
2022/08/05 05:52:05;;;;;;;10.30;5.43;;;;;;;17.64;100.00;101479.19;5070228;28;20032;-68
2022/08/05 05:54:31;;;;;;;11.02;5.43;;;;;;;17.66;100.00;101478.97;5068683;28;20464;-68
2022/08/05 05:56:56;;;;;;;10.98;5.55;;;;;;;17.66;100.00;101473.56;5069871;28;20029;-67
2022/08/05 05:59:23;;;;;;;10.75;5.13;;;;;;;17.69;100.00;101481.19;5069897;28;20074;-68
2022/08/05 06:01:48;;;;;;;16.65;5.80;;;;;;;17.67;100.00;101484.09;5069929;28;21002;-67
2022/08/05 06:04:13;;;;;;;14.23;5.68;;;;;;;17.68;100.00;101495.72;5069794;28;20119;-67
2022/08/05 06:06:44;;;;;;;11.50;5.68;;;;;;;17.68;100.00;101491.16;5069775;28;20465;-67
2022/08/05 06:09:10;;;;;;;11.68;5.15;;;;;;;17.70;100.00;101489.03;5069797;28;20032;-67
2022/08/05 06:11:35;;;;;;;13.77;5.75;;;;;;;17.66;100.00;101482.47;5069786;28;20117;-66
2022/08/05 06:14:01;;;;;;;9.15;5.28;;;;;;;17.69;100.00;101492.00;5069545;28;20040;-67
2022/08/05 06:16:27;;;;;;;11.68;6.00;;;;;;;17.71;100.00;101493.41;5068407;28;20043;-67
2022/08/05 06:18:52;;;;;;;10.90;5.35;;;;;;;17.69;100.00;101500.91;5069604;28;20040;-66
2022/08/05 06:21:17;;;;;;;12.40;5.90;;;;;;;17.71;100.00;101496.09;5069685;28;20117;-66
2022/08/05 06:23:43;;;;;;;12.38;5.85;;;;;;;17.70;100.00;101482.81;5069451;28;20035;-66
2022/08/05 06:26:09;;;;;;;14.02;6.57;;;;;;;17.81;100.00;101497.44;5069372;28;20024;-66
2022/08/05 06:28:35;;;;;;;13.45;6.88;;;;;;;17.82;100.00;101505.31;5067608;28;20036;-66
2022/08/05 06:31:01;;;;;;;13.95;6.47;;;;;;;17.77;100.00;101501.63;5069267;28;20054;-67
2022/08/05 06:33:26;;;;;;;13.15;5.07;;;;;;;17.78;99.89;101501.41;5068768;28;20491;-67
2022/08/05 06:35:52;;;;;;;11.73;5.40;;;;;;;17.79;99.57;101508.47;5068689;28;20123;-67
2022/08/05 06:38:17;;;;;;;11.07;5.72;;;;;;;17.83;99.44;101504.25;5069207;28;20024;-67
2022/08/05 06:40:42;;;;;;;10.00;6.32;;;;;;;17.84;99.56;101502.38;5069191;28;20051;-67
2022/08/05 06:43:08;;;;;;;17.20;6.55;;;;;;;17.83;99.52;101501.56;5069353;28;20059;-67
2022/08/05 06:45:34;;;;;;;9.75;5.68;;;;;;;17.89;99.83;101506.06;5069274;28;20029;-66
2022/08/05 06:47:59;;;;;;;11.45;5.90;;;;;;;18.02;99.57;101510.41;5068982;28;20040;-66
2022/08/05 06:50:25;;;;;;;13.57;6.30;;;;;;;18.09;98.75;101510.34;5068725;28;20032;-67
2022/08/05 06:52:51;;;;;;;13.82;6.95;;;;;;;18.07;98.39;101524.06;5068706;28;20598;-66
2022/08/05 06:55:16;;;;;;;11.73;6.18;;;;;;;18.01;98.25;101519.59;5069253;28;20052;-67
2022/08/05 06:57:42;;;;;;;12.20;7.53;;;;;;;18.15;98.06;101531.00;5068945;28;20032;-66
2022/08/05 07:00:09;;;;;;;12.77;5.47;;;;;;;18.23;97.28;101529.84;5068790;28;20028;-66
2022/08/05 07:02:45;;;;;;;12.50;6.55;;;;;;;18.23;97.74;101522.56;5068584;28;20032;-66
2022/08/05 07:05:11;;;;;;;14.80;7.13;;;;;;;18.26;96.84;101522.13;5068951;28;20498;-67
2022/08/05 07:07:37;;;;;;;9.20;5.07;;;;;;;18.30;96.12;101535.97;5069084;28;20035;-66
2022/08/05 07:10:03;;;;;;;11.57;5.90;;;;;;;18.37;96.52;101537.53;5068998;28;20147;-67
2022/08/05 07:17:57;;;;;;;9.13;5.22;;;;;;;18.40;95.68;101547.88;5068975;28;20564;-67
2022/08/05 07:20:22;;;;;;;10.00;5.20;;;;;;;18.50;94.17;101554.59;5069010;28;20111;-66
2022/08/05 07:22:47;;;;;;;13.23;6.22;;;;;;;18.53;94.44;101560.34;5069074;28;20032;-66
2022/08/05 07:25:13;;;;;;;11.75;5.18;;;;;;;18.59;93.37;101564.81;5068946;28;20035;-66
2022/08/05 07:27:38;;;;;;;12.73;5.20;;;;;;;18.60;93.49;101552.97;5068398;28;20166;-66
2022/08/05 07:30:04;;;;;;;13.38;6.00;;;;;;;18.64;93.95;101564.13;5068350;28;20067;-67
2022/08/05 07:32:34;;;;;;;9.65;5.32;;;;;;;18.69;93.49;101568.81;5068234;28;20416;-67
2022/08/05 07:34:59;;;;;;;11.30;4.65;;;;;;;18.81;92.48;101559.72;5068484;28;20107;-67
2022/08/05 07:37:25;;;;;;;9.93;5.20;;;;;;;18.86;92.33;101552.75;5068177;28;20060;-67
2022/08/05 07:39:50;;;;;;;9.50;6.18;;;;;;;19.00;91.09;101560.41;5068765;28;20063;-67
2022/08/05 07:42:15;;;;;;;12.63;5.35;;;;;;;19.11;90.55;101569.56;5068817;28;20071;-67
2022/08/05 07:44:41;;;;;;;10.32;4.60;;;;;;;19.19;90.38;101566.50;5068674;28;20059;-67
2022/08/05 07:47:07;;;;;;;11.10;5.30;;;;;;;19.17;89.31;101563.22;5068443;28;20452;-67
2022/08/05 07:49:32;;;;;;;7.13;4.47;;;;;;;19.08;88.14;101571.94;5068596;28;20396;-67
2022/08/05 07:51:57;;;;;;;12.23;4.82;;;;;;;19.16;89.57;101571.59;5068414;28;20041;-67
2022/08/05 07:54:25;;;;;;;9.40;4.10;;;;;;;19.30;88.09;101586.50;5068402;28;20102;-67
2022/08/05 07:56:51;;;;;;;9.48;4.20;;;;;;;19.44;86.57;101587.06;5068428;28;20086;-67
2022/08/05 07:59:16;;;;;;;9.50;4.57;;;;;;;19.41;86.17;101588.38;5068477;28;20032;-67
2022/08/05 08:01:41;;;;;;;7.47;4.57;;;;;;;19.42;86.27;101583.78;5068456;28;20036;-67
2022/08/05 08:04:07;;;;;;;7.28;4.05;;;;;;;19.48;86.07;101580.13;5068626;28;20037;-67
2022/08/05 08:06:32;;;;;;;8.82;3.63;;;;;;;19.69;84.37;101579.50;5067264;28;20039;-68
2022/08/05 08:08:57;;;;;;;7.32;4.15;;;;;;;19.84;81.12;101592.53;5066765;28;20036;-68
2022/08/05 08:11:23;;;;;;;9.05;3.88;;;;;;;19.96;80.18;101599.78;5068395;28;20119;-67
2022/08/05 08:13:48;;;;;;;6.28;3.92;;;;;;;19.97;78.84;101601.44;5071741;28;20068;-67
2022/08/05 08:16:13;;;;;;;5.68;3.08;;;;;;;20.07;78.75;101597.06;5071665;28;20056;-67
2022/08/05 08:18:39;;;;;;;6.20;2.90;;;;;;;20.88;75.38;101596.84;5071944;28;20112;-67
2022/08/05 08:21:04;;;;;;;6.82;3.95;;;;;;;21.67;69.82;101602.06;5071946;28;20109;-67
2022/08/05 08:23:30;;;;;;;4.22;2.55;;;;;;;21.91;70.20;101599.09;5071831;28;20039;-67
2022/08/05 08:25:56;;;;;;;4.05;2.22;;;;;;;23.46;62.02;101607.47;5071931;28;20016;-68
2022/08/05 08:28:21;;;;;;;6.28;2.13;;;;;;;24.57;57.78;101598.00;5071871;28;20051;-68
2022/08/05 08:30:46;;;;;;;3.85;2.28;;;;;;;24.61;57.86;101612.75;5071318;28;20412;-67
2022/08/05 08:33:12;;;;;;;3.42;1.70;;;;;;;24.28;57.41;101612.13;5071465;28;20060;-67
2022/08/05 08:35:37;;;;;;;5.70;1.92;;;;;;;24.15;58.83;101625.47;5071694;28;20479;-67
2022/08/05 08:38:03;;;;;;;2.65;2.13;;;;;;;23.35;59.89;101615.59;5071670;28;20407;-68
2022/08/05 08:40:32;;;;;;;7.05;2.10;;;;;;;22.63;63.96;101625.09;5071245;28;20036;-67
2022/08/05 08:42:59;;;;;;;6.68;2.38;;;;;;;22.74;62.28;101626.84;5071375;28;20121;-67
2022/08/05 08:45:25;;;;;;;8.98;2.45;;;;;;;22.60;62.46;101635.69;5071112;28;20482;-68
2022/08/05 08:47:52;;;;;;;5.63;2.95;;;;;;;22.03;64.21;101628.81;5071021;28;20037;-67
2022/08/05 08:50:19;;;;;;;7.30;2.45;;;;;;;21.73;66.50;101643.66;5071383;28;20055;-67
2022/08/05 08:52:59;;;;;;;4.80;3.00;;;;;;;21.37;67.81;101643.13;5071328;28;20040;-67
2022/08/05 08:55:25;;;;;;;7.30;2.78;;;;;;;21.08;68.33;101642.44;5071059;28;20052;-67
2022/08/05 08:57:50;;;;;;;4.55;3.30;;;;;;;21.02;70.45;101641.53;5071213;28;20134;-67
2022/08/05 09:00:16;;;;;;;6.88;2.67;;;;;;;21.17;70.21;101640.97;5071085;28;20193;-68
2022/08/05 09:02:41;;;;;;;6.65;2.90;;;;;;;21.24;71.44;101648.91;5071121;28;20048;-67
2022/08/05 09:05:10;;;;;;;5.65;3.80;;;;;;;21.37;69.95;101645.84;5071069;28;20943;-67
2022/08/05 09:07:35;;;;;;;4.28;3.22;;;;;;;21.41;68.98;101655.19;5071053;28;20024;-67
2022/08/05 09:10:02;;;;;;;4.20;3.22;;;;;;;21.39;69.00;101670.88;5071033;28;20024;-67
2022/08/05 09:12:28;;;;;;;3.63;3.25;;;;;;;21.42;68.99;101653.28;5070952;28;20055;-67
2022/08/05 09:14:53;;;;;;;8.25;3.92;;;;;;;21.58;70.15;101660.56;5070927;28;21580;-68
2022/08/05 09:17:18;;;;;;;6.60;3.13;;;;;;;21.47;67.47;101672.34;5070678;28;20060;-67
2022/08/05 09:19:44;;;;;;;6.97;3.10;;;;;;;21.27;70.82;101667.41;5069454;28;20472;-67
2022/08/05 09:22:09;;;;;;;4.07;2.83;;;;;;;21.21;69.29;101668.41;5069390;28;20036;-67
2022/08/05 09:24:36;;;;;;;5.15;2.65;;;;;;;21.25;68.71;101669.56;5070120;28;20020;-67
2022/08/05 09:27:07;;;;;;;5.95;3.08;;;;;;;21.45;70.49;101671.78;5070528;28;20460;-68
2022/08/05 09:29:44;;;;;;;3.50;2.73;;;;;;;21.64;68.51;101680.47;5070636;28;20813;-68
2022/08/05 09:32:10;;;;;;;5.38;2.63;;;;;;;21.69;67.35;101677.81;5070506;28;20703;-68
2022/08/05 09:34:50;;;;;;;6.90;3.88;;;;;;;21.97;68.04;101684.97;5069250;28;20051;-67
2022/08/05 09:37:18;;;;;;;5.00;3.30;;;;;;;21.96;68.43;101690.69;5070384;28;20021;-67
2022/08/05 09:39:44;;;;;;;4.45;2.45;;;;;;;21.63;66.89;101690.50;5070432;28;20087;-67
2022/08/05 09:42:10;;;;;;;4.43;2.50;;;;;;;21.24;67.96;101697.75;5069147;28;20068;-67
2022/08/05 09:44:41;;;;;;;4.47;2.15;;;;;;;20.96;68.11;101695.97;5070335;28;20025;-67
2022/08/05 09:47:18;;;;;;;2.60;2.15;;;;;;;20.78;67.55;101699.72;5070298;28;20017;-67
2022/08/05 09:49:51;;;;;;;2.38;2.05;;;;;;;20.59;69.66;101707.22;5070146;28;20036;-67
2022/08/05 09:52:34;;;;;;;1.95;1.77;;;;;;;20.65;69.04;101714.41;5070256;28;20032;-72
2022/08/05 09:55:00;;;;;;;6.32;3.08;;;;;;;20.86;68.12;101704.75;5070047;28;20124;-71
2022/08/05 09:57:29;;;;;;;3.88;2.35;;;;;;;21.15;67.21;101704.69;5069913;28;20037;-72
2022/08/05 10:00:11;;;;;;;8.43;2.15;;;;;;;21.34;66.53;101711.50;5069847;28;20132;-72
2022/08/05 10:02:39;;;;;;;4.53;2.25;;;;;;;21.55;67.08;101703.69;5070005;28;20029;-71
2022/08/05 10:05:26;;;;;;;3.42;2.65;;;;;;;21.68;63.83;101708.75;5070022;28;20033;-71
2022/08/05 10:07:55;;;;;;;6.80;2.45;;;;;;;21.89;63.40;101709.88;5069491;28;20064;-72
2022/08/05 10:10:23;;;;;;;5.40;2.20;;;;;;;21.96;63.23;101715.13;5069894;28;20063;-71
2022/08/05 10:13:00;;;;;;;2.67;1.83;;;;;;;22.12;62.77;101711.53;5069765;28;20444;-72
2022/08/05 10:15:31;;;;;;;3.72;2.42;;;;;;;22.14;62.29;101713.97;5069619;28;20441;-71
2022/08/05 10:18:04;;;;;;;2.60;2.40;;;;;;;21.99;63.18;101706.47;5069567;28;20064;-72
2022/08/05 10:20:31;;;;;;;3.53;2.20;;;;;;;21.97;60.45;101714.03;5069693;28;20032;-73
2022/08/05 10:22:57;;;;;;;6.10;2.22;;;;;;;22.06;60.02;101705.22;5068286;28;20437;-72
2022/08/05 10:25:22;;;;;;;7.72;2.92;;;;;;;22.05;62.31;101708.97;5069366;28;20032;-72
2022/08/05 10:27:48;;;;;;;5.00;2.72;;;;;;;21.93;59.40;101715.59;5069426;28;20033;-73
2022/08/05 10:30:14;;;;;;;2.40;2.20;;;;;;;21.75;62.86;101714.03;5069434;28;20090;-74
2022/08/05 10:32:39;;;;;;;2.00;1.60;;;;;;;21.56;61.84;101714.31;5068835;28;20057;-71
2022/08/05 10:35:05;;;;;;;3.05;2.15;;;;;;;21.47;59.08;101717.69;5068772;28;20097;-72
2022/08/05 10:37:32;;;;;;;5.25;1.70;;;;;;;21.54;57.95;101723.78;5068875;28;20119;-72
2022/08/05 10:40:03;;;;;;;1.13;1.10;;;;;;;21.75;56.88;101714.84;5069364;28;20028;-72
2022/08/05 10:42:35;;;;;;;3.92;1.83;;;;;;;22.05;57.00;101721.75;5069332;28;20089;-72
2022/08/05 10:45:00;;;;;;;;;;;;;;;22.43;59.04;101728.22;5069760;28;20032;-72
2022/08/05 10:47:32;;;;;;;2.60;1.90;;;;;;;22.79;54.98;101729.41;5069329;28;19916;-69
2022/08/05 10:50:15;;;;;;;7.00;1.35;;;;;;;23.06;54.38;101731.34;5069096;28;20036;-71
2022/08/05 10:52:54;;;;;;;2.65;1.45;;;;;;;23.24;51.80;101738.25;5067802;28;20404;-71
2022/08/05 10:55:19;;;;;;;3.30;1.77;;;;;;;23.05;51.95;101738.66;5069090;28;20395;-70
2022/08/05 10:57:45;;;;;;;1.85;1.02;;;;;;;22.86;52.14;101740.91;5068763;28;20055;-71
2022/08/05 11:00:15;;;;;;;1.58;0.90;;;;;;;22.64;51.95;101743.69;5069100;28;20480;-71
2022/08/05 11:03:02;;;;;;;3.60;1.10;;;;;;;22.56;55.77;101746.88;5069184;28;20024;-73
2022/08/05 11:05:28;;;;;;;1.08;1.08;;;;;;;22.43;53.88;101744.53;5069069;28;20955;-73
2022/08/05 11:08:04;;;;;;;1.00;1.00;;;;;;;22.43;52.60;101750.78;5068944;28;20020;-68
2022/08/05 11:10:31;;;;;;;1.75;0.98;;;;;;;22.49;49.37;101752.47;5069049;28;20107;-68
2022/08/05 11:12:58;;;;;;;1.10;1.02;;;;;;;22.60;51.82;101753.41;5069183;28;20066;-68
2022/08/05 11:15:38;;;;;;;2.33;1.17;;;;;;;22.68;51.50;101750.25;5069086;28;20422;-68
2022/08/05 11:18:24;;;;;;;2.58;0.90;;;;;;;22.65;50.26;101758.09;5068955;28;20036;-68
2022/08/05 11:20:51;;;;;;;1.27;1.15;;;;;;;22.39;51.09;101751.53;5068915;28;20464;-68
2022/08/05 11:23:42;;;;;;;1.40;0.93;;;;;;;22.40;50.58;101764.91;5068352;28;20033;-68
2022/08/05 11:26:10;;;;;;;2.20;1.40;;;;;;;22.57;49.97;101764.81;5068779;28;20078;-68